createdAt,value
2022-11-17T00:01:48.961Z,26.1
2022-11-17T00:07:28.070Z,25.8
2022-11-17T00:13:11.927Z,25.3
2022-11-17T00:18:19.465Z,24.6
2022-11-17T00:23:56.380Z,25.8
2022-11-17T00:29:18.357Z,27
2022-11-17T00:34:41.780Z,26.8
2022-11-17T00:39:48.850Z,26.3
2022-11-17T00:45:26.228Z,25.9
2022-11-17T00:50:18.149Z,25.5
2022-11-17T00:55:25.839Z,24.8
2022-11-17T01:00:48.141Z,24.9
2022-11-17T01:05:55.645Z,26.6
2022-11-17T01:11:18.715Z,26.9
2022-11-17T01:16:40.732Z,26.5
2022-11-17T01:22:18.749Z,26.1
2022-11-17T01:27:10.501Z,25.6
2022-11-17T01:32:17.629Z,25.3
2022-11-17T01:37:08.844Z,24.6
2022-11-17T01:42:30.990Z,25.3
2022-11-17T01:47:38.553Z,26.8
2022-11-17T01:53:00.138Z,26.9
2022-11-17T01:58:22.288Z,26.5
2022-11-17T02:03:46.105Z,26
2022-11-17T02:09:23.209Z,25.6
2022-11-17T02:15:01.341Z,25.2
2022-11-17T02:20:34.011Z,24.6
2022-11-17T02:25:27.091Z,26.4
2022-11-17T02:30:50.179Z,27
2022-11-17T02:36:13.381Z,26.6
2022-11-17T02:41:19.528Z,26.1
2022-11-17T02:46:42.447Z,25.8
2022-11-17T02:52:08.784Z,25.4
2022-11-17T02:57:16.415Z,24.6
2022-11-17T03:02:38.404Z,25.3
2022-11-17T03:08:01.896Z,26.8
2022-11-17T03:13:40.466Z,26.9
2022-11-17T03:19:18.237Z,26.4
2022-11-17T03:24:56.579Z,25.9
2022-11-17T03:30:37.400Z,25.6
2022-11-17T03:36:20.855Z,24.8
2022-11-17T03:41:59.303Z,25.3
2022-11-17T03:47:06.261Z,26.8
2022-11-17T03:52:12.974Z,26.9
2022-11-17T03:57:51.987Z,26.5
2022-11-17T04:03:12.839Z,26.1
2022-11-17T04:08:36.146Z,25.7
2022-11-17T04:14:16.697Z,25.3
2022-11-17T04:19:57.118Z,24.8
2022-11-17T04:25:35.571Z,26.6
2022-11-17T04:30:57.899Z,26.9
2022-11-17T04:36:35.501Z,26.6
2022-11-17T04:41:57.758Z,26.2
2022-11-17T04:47:36.482Z,25.8
2022-11-17T04:53:18.967Z,25.4
2022-11-17T04:58:44.122Z,24.7
2022-11-17T05:04:07.807Z,26.4
2022-11-17T05:09:45.186Z,27
2022-11-17T05:15:22.751Z,26.7
2022-11-17T05:20:33.040Z,26.2
2022-11-17T05:26:10.613Z,25.9
2022-11-17T05:31:48.131Z,25.5
2022-11-17T05:37:31.198Z,24.6
2022-11-17T05:43:13.726Z,26.3
2022-11-17T05:48:36.808Z,27.4
2022-11-17T05:54:03.756Z,27.5
2022-11-17T05:59:27.957Z,27
2022-11-17T06:04:35.624Z,25.6
2022-11-17T06:10:05.070Z,26.4
2022-11-17T06:15:43.419Z,27.6
2022-11-17T06:21:04.280Z,27.7
2022-11-17T06:26:59.364Z,27.2
2022-11-17T06:32:38.658Z,26
2022-11-17T06:38:00.864Z,26.3
2022-11-17T06:43:42.804Z,27.6
2022-11-17T06:49:20.955Z,27.7
2022-11-17T06:55:05.409Z,27.1
2022-11-17T07:00:29.044Z,26.6
2022-11-17T07:05:52.632Z,25.7
2022-11-17T07:11:36.096Z,27.4
2022-11-17T07:16:59.050Z,27.9
2022-11-17T07:22:38.238Z,27.4
2022-11-17T07:28:06.660Z,26.9
2022-11-17T07:33:45.435Z,25.7
2022-11-17T07:39:24.162Z,26.8
2022-11-17T07:45:02.211Z,27.4
2022-11-17T07:50:44.061Z,26.9
2022-11-17T07:56:07.467Z,26.5
2022-11-17T08:01:52.330Z,26.1
2022-11-17T08:07:21.964Z,25.6
2022-11-17T08:12:30.529Z,25.2
2022-11-17T08:17:54.692Z,25
2022-11-17T08:23:20.187Z,26.8
2022-11-17T08:28:43.552Z,27.2
2022-11-17T08:34:06.236Z,26.8
2022-11-17T08:39:32.288Z,26.3
2022-11-17T08:45:14.902Z,25.9
2022-11-17T08:50:54.456Z,25.6
2022-11-17T08:56:18.328Z,24.9
2022-11-17T09:01:57.589Z,25.4
2022-11-17T09:07:36.277Z,27.1
2022-11-17T09:13:35.320Z,27
2022-11-17T09:19:14.124Z,26.6
2022-11-17T09:24:40.575Z,26.2
2022-11-17T09:30:04.794Z,25.8
2022-11-17T09:35:29.952Z,25.4
2022-11-17T09:40:54.781Z,24.9
2022-11-17T09:46:39.004Z,26.7
2022-11-17T09:52:33.939Z,27.1
2022-11-17T09:58:17.941Z,26.7
2022-11-17T10:04:02.381Z,26.3
2022-11-17T10:09:42.601Z,25.9
2022-11-17T10:15:20.755Z,25.6
2022-11-17T10:20:58.782Z,24.9
2022-11-17T10:26:37.819Z,26.7
2022-11-17T10:32:15.439Z,27.1
2022-11-17T10:38:00.000Z,26.8
2022-11-17T10:43:46.300Z,26.4
2022-11-17T10:49:33.670Z,25.9
2022-11-17T10:55:12.882Z,25.4
2022-11-17T11:00:51.024Z,24.9
2022-11-17T11:06:33.853Z,26.8
2022-11-17T11:12:12.444Z,27.1
2022-11-17T11:17:53.596Z,26.8
2022-11-17T11:23:16.197Z,26.4
2022-11-17T11:28:59.242Z,26.1
2022-11-17T11:34:37.186Z,25.7
2022-11-17T11:40:17.803Z,24.9
2022-11-17T11:46:01.223Z,26.9
2022-11-17T11:51:45.010Z,27.1
2022-11-17T11:57:10.698Z,26.8
2022-11-17T12:02:52.103Z,26.4
2022-11-17T12:08:30.937Z,26.1
2022-11-17T12:14:14.719Z,25.6
2022-11-17T12:19:53.110Z,24.9
2022-11-17T12:25:30.819Z,26.8
2022-11-17T12:31:10.936Z,27.1
2022-11-17T12:36:49.213Z,26.7
2022-11-17T12:42:12.143Z,26.3
2022-11-17T12:48:18.480Z,25.9
2022-11-17T12:54:10.841Z,25.4
2022-11-17T12:59:50.570Z,24.8
2022-11-17T13:05:28.561Z,26.7
2022-11-17T13:11:39.039Z,27.1
2022-11-17T13:17:22.243Z,26.6
2022-11-17T13:22:44.835Z,26.2
2022-11-17T13:28:13.879Z,25.8
2022-11-17T13:33:56.924Z,25.4
2022-11-17T13:39:40.749Z,25.1
2022-11-17T13:45:19.386Z,24.6
2022-11-17T13:50:57.281Z,24.2
2022-11-17T13:56:39.252Z,23.9
2022-11-17T14:02:19.753Z,23.6
2022-11-17T14:07:58.975Z,23.3
2022-11-17T14:13:36.677Z,23
2022-11-17T14:19:15.574Z,22.7
2022-11-17T14:25:02.138Z,22.6
2022-11-17T14:30:40.065Z,22.4
2022-11-17T14:36:28.319Z,22.3
2022-11-17T14:41:54.927Z,22.1
2022-11-17T14:47:36.637Z,21.9
2022-11-17T14:53:03.945Z,21.8
2022-11-17T14:58:11.543Z,21.7
2022-11-17T15:03:55.690Z,21.6
2022-11-17T15:10:09.572Z,21.5
2022-11-17T15:15:49.249Z,21.4
2022-11-17T15:21:11.439Z,21.4
2022-11-17T15:26:55.038Z,21.3
2022-11-17T15:32:18.625Z,21.3
2022-11-17T15:37:56.727Z,21.3
2022-11-17T15:43:28.026Z,21.2
2022-11-17T15:49:08.204Z,23.6
2022-11-17T15:55:18.462Z,25.7
2022-11-17T16:00:57.027Z,26.9
2022-11-17T16:11:47.082Z,28.4
2022-11-17T16:17:24.591Z,28.9
2022-11-17T16:23:03.153Z,28.9
2022-11-17T16:28:25.369Z,29.1
2022-11-17T16:33:52.593Z,29
2022-11-17T16:40:02.902Z,29.2
2022-11-17T16:45:25.747Z,29.6
2022-11-17T16:51:03.121Z,29.8
2022-11-17T16:56:45.202Z,29.4
2022-11-17T17:02:07.519Z,29.9
2022-11-17T17:07:46.598Z,30.3
2022-11-17T17:13:09.610Z,30.7
2022-11-17T17:18:31.655Z,31.1
2022-11-17T17:23:54.762Z,31.3
2022-11-17T17:29:01.370Z,31.6
2022-11-17T17:34:41.423Z,31.6
2022-11-17T17:40:03.860Z,31.6
2022-11-17T17:45:41.983Z,31.5
2022-11-17T17:51:20.060Z,31.8
2022-11-17T17:56:26.656Z,32.1
2022-11-17T18:02:03.968Z,32.3
2022-11-17T18:07:29.068Z,32.3
2022-11-17T18:13:10.529Z,32.4
2022-11-17T18:18:48.559Z,32.5
2022-11-17T18:24:32.676Z,32.6
2022-11-17T18:30:17.784Z,32.7
2022-11-17T18:35:56.024Z,32.8
2022-11-17T18:41:33.784Z,32.8
2022-11-17T18:47:17.906Z,32.8
2022-11-17T18:53:20.705Z,32.9
2022-11-17T18:58:58.249Z,33
2022-11-17T19:04:21.061Z,33.1
2022-11-17T19:09:59.441Z,33.2
2022-11-17T19:15:37.461Z,33.3
2022-11-17T19:21:16.197Z,33.5
2022-11-17T19:26:40.139Z,33.5
2022-11-17T19:32:21.177Z,33.5
2022-11-17T19:37:39.535Z,33.6
2022-11-17T19:43:18.144Z,33.8
2022-11-17T19:49:01.218Z,33.8
2022-11-17T19:54:38.138Z,33.8
2022-11-17T20:00:05.643Z,33.7
2022-11-17T20:05:28.115Z,33.8
2022-11-17T20:10:35.421Z,33.8
2022-11-17T20:16:10.453Z,33.8
2022-11-17T20:21:50.331Z,33.8
2022-11-17T20:27:18.346Z,33.6
2022-11-17T20:33:02.048Z,33.6
2022-11-17T20:38:41.665Z,33.6
2022-11-17T20:44:19.567Z,33.4
2022-11-17T20:49:41.812Z,33.1
2022-11-17T20:55:04.884Z,33
2022-11-17T21:00:44.195Z,32.7
2022-11-17T21:06:13.461Z,32.4
2022-11-17T21:11:52.257Z,32.3
2022-11-17T21:17:14.665Z,31.9
2022-11-17T21:22:58.482Z,31.7
2022-11-17T21:28:36.304Z,31.3
2022-11-17T21:34:06.134Z,30.9
2022-11-17T21:39:34.448Z,30.6
2022-11-17T21:44:57.047Z,29.6
2022-11-17T21:50:34.225Z,29
2022-11-17T21:56:12.123Z,28.6
2022-11-17T22:01:19.378Z,28.1
2022-11-17T22:06:58.125Z,27.7
2022-11-17T22:12:21.528Z,27.3
2022-11-17T22:17:58.623Z,26.8
2022-11-17T22:23:36.649Z,26.4
2022-11-17T22:29:29.368Z,28.3
2022-11-17T22:35:10.392Z,29.3
2022-11-17T22:40:32.930Z,29.4
2022-11-17T22:46:17.531Z,28.9
2022-11-17T22:51:55.400Z,28.4
2022-11-17T22:57:32.435Z,28.1
2022-11-17T23:03:00.252Z,27.6
2022-11-17T23:08:26.181Z,27.2
2022-11-17T23:14:38.092Z,26.9
2022-11-17T23:20:00.955Z,26.6
2022-11-17T23:25:23.526Z,26.3
2022-11-17T23:31:01.437Z,26.8
2022-11-17T23:36:38.978Z,27.9
2022-11-17T23:42:20.036Z,28.9
2022-11-17T23:47:59.660Z,28.4
2022-11-17T23:53:37.213Z,27.8
2022-11-17T23:59:14.948Z,27.3
